createdAt,value
2018-08-24T00:00:24.465Z,23.71
2018-08-24T00:01:24.484Z,23.69
2018-08-24T00:02:24.507Z,23.81
2018-08-24T00:03:24.527Z,23.69
2018-08-24T00:04:24.555Z,23.74
2018-08-24T00:05:24.572Z,23.66
2018-08-24T00:06:24.596Z,23.69
2018-08-24T00:07:24.649Z,23.56
2018-08-24T00:08:24.635Z,23.55
2018-08-24T00:09:24.659Z,23.56
2018-08-24T00:10:24.681Z,23.32
2018-08-24T00:11:24.701Z,23.21
2018-08-24T00:12:24.725Z,23.12
2018-08-24T00:13:24.745Z,22.75
2018-08-24T00:14:24.771Z,22.38
2018-08-24T00:15:24.790Z,22.44
2018-08-24T00:16:24.840Z,22.48
2018-08-24T00:17:24.837Z,22.32
2018-08-24T00:18:24.856Z,22.44
2018-08-24T00:19:24.877Z,22.54
2018-08-24T00:20:24.900Z,22.69
2018-08-24T00:21:24.920Z,22.88
2018-08-24T00:22:24.942Z,23.09
2018-08-24T00:23:24.969Z,23.09
2018-08-24T00:24:24.986Z,23.00
2018-08-24T00:25:25.013Z,22.88
2018-08-24T00:26:25.030Z,22.76
2018-08-24T00:27:25.052Z,22.45
2018-08-24T00:28:25.076Z,22.17
2018-08-24T00:29:25.095Z,22.20
2018-08-24T00:30:25.118Z,22.15
2018-08-24T00:31:25.140Z,22.04
2018-08-24T00:32:25.163Z,22.14
2018-08-24T00:33:25.183Z,22.13
2018-08-24T00:34:25.203Z,21.95
2018-08-24T00:35:25.229Z,21.83
2018-08-24T00:36:25.247Z,21.91
2018-08-24T00:37:25.269Z,21.85
2018-08-24T00:38:25.293Z,21.73
2018-08-24T00:39:25.329Z,21.77
2018-08-24T00:40:25.337Z,21.79
2018-08-24T00:41:25.357Z,21.72
2018-08-24T00:42:25.376Z,21.79
2018-08-24T00:43:25.398Z,21.99
2018-08-24T00:44:25.421Z,22.43
2018-08-24T00:45:25.443Z,22.17
2018-08-24T00:46:25.471Z,22.15
2018-08-24T00:47:25.486Z,22.38
2018-08-24T00:48:25.508Z,22.60
2018-08-24T00:49:25.534Z,22.80
2018-08-24T00:50:25.549Z,22.83
2018-08-24T00:51:25.574Z,22.90
2018-08-24T00:52:25.594Z,23.02
2018-08-24T00:53:25.614Z,23.03
2018-08-24T00:54:25.636Z,22.94
2018-08-24T00:55:25.696Z,22.98
2018-08-24T00:56:25.681Z,22.96
2018-08-24T00:57:25.706Z,22.72
2018-08-24T00:58:25.724Z,22.63
2018-08-24T00:59:25.746Z,22.28
2018-08-24T01:00:25.766Z,22.35
2018-08-24T01:01:25.787Z,22.41
2018-08-24T01:02:25.810Z,22.47
2018-08-24T01:03:25.851Z,22.48
2018-08-24T01:04:25.855Z,22.47
2018-08-24T01:05:25.873Z,22.41
2018-08-24T01:06:25.899Z,22.68
2018-08-24T01:07:25.954Z,22.65
2018-08-24T01:08:25.952Z,22.66
2018-08-24T01:09:25.961Z,22.62
2018-08-24T01:10:25.979Z,22.55
2018-08-24T01:11:26.004Z,22.32
2018-08-24T01:12:26.029Z,22.17
2018-08-24T01:13:26.045Z,22.15
2018-08-24T01:14:26.069Z,22.33
2018-08-24T01:15:26.097Z,22.41
2018-08-24T01:16:26.113Z,22.59
2018-08-24T01:17:26.137Z,22.63
2018-08-24T01:18:26.161Z,22.38
2018-08-24T01:19:26.184Z,22.15
2018-08-24T01:20:26.200Z,22.02
2018-08-24T01:21:26.222Z,22.26
2018-08-24T01:22:26.243Z,22.45
2018-08-24T01:23:26.263Z,22.75
2018-08-24T01:24:26.285Z,22.93
2018-08-24T01:25:26.306Z,23.00
2018-08-24T01:26:26.329Z,22.85
2018-08-24T01:27:26.347Z,23.12
2018-08-24T01:28:26.369Z,23.13
2018-08-24T01:29:26.391Z,23.08
2018-08-24T01:30:26.415Z,22.96
2018-08-24T01:31:26.437Z,23.12
2018-08-24T01:32:26.456Z,23.17
2018-08-24T01:33:26.483Z,23.10
2018-08-24T01:34:26.502Z,23.03
2018-08-24T01:35:26.525Z,23.08
2018-08-24T01:36:26.543Z,23.06
2018-08-24T01:37:26.566Z,23.06
2018-08-24T01:38:26.630Z,23.09
2018-08-24T01:39:26.607Z,22.99
2018-08-24T01:40:26.632Z,22.90
2018-08-24T01:41:26.650Z,22.81
2018-08-24T01:42:26.668Z,22.75
2018-08-24T01:43:26.694Z,22.85
2018-08-24T01:44:26.716Z,22.80
2018-08-24T01:45:26.738Z,22.73
2018-08-24T01:46:26.757Z,22.65
2018-08-24T01:47:26.780Z,22.66
2018-08-24T01:48:26.803Z,22.73
2018-08-24T01:49:26.827Z,22.75
2018-08-24T01:50:26.843Z,22.98
2018-08-24T01:51:26.876Z,22.90
2018-08-24T01:52:26.888Z,22.85
2018-08-24T01:53:26.911Z,22.66
2018-08-24T01:54:26.940Z,22.72
2018-08-24T01:55:26.980Z,22.85
2018-08-24T01:56:26.973Z,22.98
2018-08-24T01:57:26.996Z,22.90
2018-08-24T01:58:27.060Z,23.08
2018-08-24T01:59:27.041Z,23.10
2018-08-24T02:00:27.063Z,23.25
2018-08-24T02:01:27.085Z,23.40
2018-08-24T02:02:27.105Z,23.23
2018-08-24T02:03:27.126Z,23.21
2018-08-24T02:04:27.149Z,23.23
2018-08-24T02:05:27.168Z,23.28
2018-08-24T02:06:27.190Z,23.39
2018-08-24T02:07:27.214Z,23.50
2018-08-24T02:08:27.238Z,23.43
2018-08-24T02:09:27.257Z,23.55
2018-08-24T02:10:27.280Z,23.59
2018-08-24T02:11:27.302Z,23.44
2018-08-24T02:12:27.325Z,23.12
2018-08-24T02:13:27.344Z,23.37
2018-08-24T02:14:27.409Z,23.24
2018-08-24T02:15:27.387Z,23.23
2018-08-24T02:16:27.409Z,23.39
2018-08-24T02:17:27.431Z,23.40
2018-08-24T02:18:27.452Z,23.39
2018-08-24T02:19:27.474Z,23.17
2018-08-24T02:20:27.511Z,23.28
2018-08-24T02:21:27.516Z,23.25
2018-08-24T02:22:27.540Z,23.13
2018-08-24T02:23:27.562Z,23.06
2018-08-24T02:24:27.584Z,23.06
2018-08-24T02:25:27.605Z,23.15
2018-08-24T02:26:27.630Z,23.12
2018-08-24T02:27:27.651Z,23.40
2018-08-24T02:28:27.673Z,23.54
2018-08-24T02:29:27.693Z,23.37
2018-08-24T02:30:27.714Z,23.08
2018-08-24T02:31:27.738Z,23.15
2018-08-24T02:32:27.758Z,23.09
2018-08-24T02:33:27.781Z,23.20
2018-08-24T02:34:27.804Z,23.08
2018-08-24T02:35:27.823Z,23.12
2018-08-24T02:36:27.844Z,22.84
2018-08-24T02:37:27.865Z,22.93
2018-08-24T02:38:27.890Z,22.78
2018-08-24T02:39:27.917Z,22.66
2018-08-24T02:40:27.931Z,22.88
2018-08-24T02:41:27.953Z,22.98
2018-08-24T02:42:27.976Z,22.83
2018-08-24T02:43:28.004Z,22.76
2018-08-24T02:44:28.026Z,22.81
2018-08-24T02:45:28.043Z,22.72
2018-08-24T02:46:28.068Z,22.73
2018-08-24T02:47:28.084Z,22.70
2018-08-24T02:48:28.108Z,22.50
2018-08-24T02:49:28.127Z,22.57
2018-08-24T02:50:28.149Z,22.59
2018-08-24T02:51:28.174Z,22.60
2018-08-24T02:52:28.193Z,22.62
2018-08-24T02:53:28.217Z,22.69
2018-08-24T02:54:28.233Z,22.76
2018-08-24T02:55:28.256Z,22.75
2018-08-24T02:56:28.276Z,22.90
2018-08-24T02:57:28.297Z,22.96
2018-08-24T02:58:28.375Z,22.90
2018-08-24T02:59:28.344Z,22.91
2018-08-24T03:00:28.372Z,22.90
2018-08-24T03:01:28.386Z,22.96
2018-08-24T03:02:28.407Z,22.96
2018-08-24T03:03:28.429Z,23.02
2018-08-24T03:04:28.457Z,22.73
2018-08-24T03:05:28.624Z,22.73
2018-08-24T03:06:28.494Z,22.65
2018-08-24T03:07:28.517Z,22.57
2018-08-24T03:08:28.539Z,22.54
2018-08-24T03:09:28.556Z,22.55
2018-08-24T03:10:28.595Z,22.55
2018-08-24T03:11:28.603Z,22.55
2018-08-24T03:12:28.628Z,22.53
2018-08-24T03:13:28.646Z,22.39
2018-08-24T03:14:28.666Z,22.50
2018-08-24T03:15:28.685Z,22.33
2018-08-24T03:16:28.822Z,22.51
2018-08-24T03:17:28.732Z,22.45
2018-08-24T03:18:28.752Z,22.55
2018-08-24T03:19:28.772Z,22.57
2018-08-24T03:20:28.842Z,22.53
2018-08-24T03:21:28.815Z,22.53
2018-08-24T03:22:28.838Z,22.29
2018-08-24T03:23:28.871Z,22.55
2018-08-24T03:24:28.884Z,22.43
2018-08-24T03:25:28.903Z,22.33
2018-08-24T03:26:28.922Z,22.50
2018-08-24T03:27:28.944Z,22.70
2018-08-24T03:28:28.968Z,22.65
2018-08-24T03:29:28.988Z,22.73
2018-08-24T03:30:29.010Z,22.55
2018-08-24T03:31:29.031Z,22.63
2018-08-24T03:32:29.051Z,22.39
2018-08-24T03:33:29.072Z,22.60
2018-08-24T03:34:29.095Z,22.65
2018-08-24T03:35:29.116Z,22.76
2018-08-24T03:36:29.138Z,22.60
2018-08-24T03:37:29.165Z,22.73
2018-08-24T03:38:29.204Z,22.72
2018-08-24T03:39:29.229Z,22.76
2018-08-24T03:40:29.224Z,22.78
2018-08-24T03:41:29.248Z,22.90
2018-08-24T03:42:29.272Z,22.83
2018-08-24T03:43:29.289Z,22.83
2018-08-24T03:44:29.310Z,22.75
2018-08-24T03:45:29.329Z,22.73
2018-08-24T03:46:29.356Z,22.85
2018-08-24T03:47:29.375Z,22.87
2018-08-24T03:48:29.397Z,23.03
2018-08-24T03:49:29.422Z,23.00
2018-08-24T03:50:29.437Z,23.15
2018-08-24T03:51:29.459Z,23.03
2018-08-24T03:52:29.489Z,22.91
2018-08-24T03:53:29.507Z,22.73
2018-08-24T03:54:29.526Z,22.75
2018-08-24T03:55:29.548Z,22.75
2018-08-24T03:56:29.575Z,22.62
2018-08-24T03:57:29.592Z,22.68
2018-08-24T03:58:29.610Z,22.76
2018-08-24T03:59:29.658Z,22.81
2018-08-24T04:00:29.656Z,22.63
2018-08-24T04:01:29.677Z,22.50
2018-08-24T04:02:29.697Z,22.33
2018-08-24T04:03:29.722Z,22.32
2018-08-24T04:04:29.742Z,22.47
2018-08-24T04:05:29.764Z,22.55
2018-08-24T04:06:29.785Z,22.53
2018-08-24T04:07:29.820Z,22.51
2018-08-24T04:08:29.828Z,22.36
2018-08-24T04:09:29.856Z,22.20
2018-08-24T04:10:29.872Z,21.95
2018-08-24T04:11:29.894Z,22.02
2018-08-24T04:12:29.914Z,21.99
2018-08-24T04:13:29.938Z,21.95
2018-08-24T04:14:29.957Z,22.06
2018-08-24T04:15:29.985Z,21.99
2018-08-24T04:16:29.999Z,22.04
2018-08-24T04:17:30.024Z,21.98
2018-08-24T04:18:30.046Z,21.98
2018-08-24T04:19:30.139Z,21.91
2018-08-24T04:20:30.085Z,21.73
2018-08-24T04:21:30.107Z,21.82
2018-08-24T04:22:30.127Z,21.85
2018-08-24T04:23:30.158Z,21.82
2018-08-24T04:24:30.186Z,21.95
2018-08-24T04:25:30.202Z,22.02
2018-08-24T04:26:30.246Z,21.95
2018-08-24T04:27:30.237Z,21.92
2018-08-24T04:28:30.260Z,21.75
2018-08-24T04:29:30.286Z,21.79
2018-08-24T04:30:30.301Z,21.70
2018-08-24T04:31:30.325Z,21.72
2018-08-24T04:32:30.348Z,21.72
2018-08-24T04:33:30.365Z,21.85
2018-08-24T04:34:30.387Z,21.64
2018-08-24T04:35:30.410Z,21.61
2018-08-24T04:36:30.509Z,21.55
2018-08-24T04:37:30.448Z,21.39
2018-08-24T04:38:30.476Z,21.30
2018-08-24T04:39:30.495Z,21.27
2018-08-24T04:40:30.668Z,21.35
2018-08-24T04:41:30.542Z,21.25
2018-08-24T04:42:30.563Z,21.35
2018-08-24T04:43:30.576Z,21.20
2018-08-24T04:44:30.603Z,21.18
2018-08-24T04:45:30.681Z,21.14
2018-08-24T04:46:30.647Z,21.45
2018-08-24T04:47:30.664Z,21.54
2018-08-24T04:48:30.687Z,21.58
2018-08-24T04:49:30.715Z,21.43
2018-08-24T04:50:30.734Z,21.37
2018-08-24T04:51:30.817Z,21.21
2018-08-24T04:52:30.772Z,21.22
2018-08-24T04:53:30.789Z,21.33
2018-08-24T04:54:30.817Z,21.39
2018-08-24T04:55:30.839Z,21.37
2018-08-24T04:56:30.859Z,21.40
2018-08-24T04:57:31.036Z,21.12
2018-08-24T04:58:30.896Z,20.85
2018-08-24T04:59:30.915Z,20.80
2018-08-24T05:00:30.943Z,20.75
2018-08-24T05:01:30.963Z,20.82
2018-08-24T05:02:30.978Z,20.90
2018-08-24T05:03:31.001Z,20.70
2018-08-24T05:04:31.023Z,20.58
2018-08-24T05:05:31.046Z,20.50
2018-08-24T05:06:31.065Z,20.56
2018-08-24T05:07:31.084Z,20.80
2018-08-24T05:08:31.105Z,20.78
2018-08-24T05:09:31.128Z,20.44
2018-08-24T05:10:31.149Z,20.55
2018-08-24T05:11:31.174Z,20.85
2018-08-24T05:12:31.190Z,20.56
2018-08-24T05:13:31.214Z,20.63
2018-08-24T05:14:31.238Z,20.77
2018-08-24T05:15:31.269Z,20.70
2018-08-24T05:16:31.275Z,20.67
2018-08-24T05:17:31.294Z,20.81
2018-08-24T05:18:31.319Z,20.85
2018-08-24T05:19:31.337Z,21.00
2018-08-24T05:20:31.359Z,20.80
2018-08-24T05:21:31.447Z,20.70
2018-08-24T05:22:31.403Z,20.75
2018-08-24T05:23:31.421Z,21.02
2018-08-24T05:24:31.445Z,21.00
2018-08-24T05:25:31.465Z,21.06
2018-08-24T05:26:31.484Z,21.11
2018-08-24T05:27:31.509Z,20.87
2018-08-24T05:28:31.529Z,21.00
2018-08-24T05:29:31.549Z,20.97
2018-08-24T05:30:31.568Z,21.07
2018-08-24T05:31:31.592Z,21.00
2018-08-24T05:32:31.618Z,20.97
2018-08-24T05:33:31.633Z,20.96
2018-08-24T05:34:31.656Z,20.88
2018-08-24T05:35:31.703Z,21.20
2018-08-24T05:36:31.700Z,20.97
2018-08-24T05:37:31.717Z,20.36
2018-08-24T05:38:31.876Z,20.50
2018-08-24T05:39:31.757Z,20.51
2018-08-24T05:40:31.786Z,20.67
2018-08-24T05:41:31.868Z,20.87
2018-08-24T05:42:31.867Z,20.84
2018-08-24T05:43:31.845Z,20.84
2018-08-24T05:44:31.864Z,20.95
2018-08-24T05:45:31.887Z,20.85
2018-08-24T05:46:31.915Z,20.74
2018-08-24T05:47:31.937Z,20.97
2018-08-24T05:48:31.949Z,21.11
2018-08-24T05:49:31.967Z,21.09
2018-08-24T05:50:31.998Z,21.03
2018-08-24T05:51:32.014Z,21.00
2018-08-24T05:52:32.036Z,21.24
2018-08-24T05:53:32.053Z,21.02
2018-08-24T05:54:32.076Z,21.42
2018-08-24T05:55:32.107Z,21.42
2018-08-24T05:56:32.178Z,21.50
2018-08-24T05:57:32.139Z,21.76
2018-08-24T05:58:32.160Z,21.61
2018-08-24T05:59:32.182Z,21.77
2018-08-24T06:00:32.203Z,22.14
2018-08-24T06:01:32.255Z,22.22
2018-08-24T06:02:32.246Z,22.17
2018-08-24T06:03:32.269Z,22.41
2018-08-24T06:04:32.356Z,22.84
2018-08-24T06:05:32.506Z,23.02
2018-08-24T06:06:32.406Z,23.13
2018-08-24T06:07:32.357Z,23.31
2018-08-24T06:08:32.379Z,23.44
2018-08-24T06:09:32.398Z,23.77
2018-08-24T06:10:32.421Z,23.71
2018-08-24T06:11:32.447Z,24.03
2018-08-24T06:12:32.468Z,24.24
2018-08-24T06:13:32.487Z,24.35
2018-08-24T06:14:32.515Z,23.99
2018-08-24T06:15:32.537Z,24.17
2018-08-24T06:16:32.559Z,24.40
2018-08-24T06:17:32.589Z,24.66
2018-08-24T06:18:32.608Z,24.35
2018-08-24T06:19:32.629Z,24.57
2018-08-24T06:20:32.650Z,24.63
2018-08-24T06:21:32.673Z,24.88
2018-08-24T06:22:32.706Z,24.60
2018-08-24T06:23:32.724Z,24.32
2018-08-24T06:24:32.766Z,24.21
2018-08-24T06:25:32.767Z,24.63
2018-08-24T06:26:32.793Z,24.30
2018-08-24T06:27:32.812Z,24.40
2018-08-24T06:28:32.839Z,24.30
2018-08-24T06:29:32.866Z,24.54
2018-08-24T06:30:32.890Z,24.47
2018-08-24T06:31:32.910Z,24.23
2018-08-24T06:32:32.934Z,24.17
2018-08-24T06:33:32.954Z,23.91
2018-08-24T06:34:32.979Z,23.63
2018-08-24T06:35:33.000Z,23.41
2018-08-24T06:36:33.147Z,23.24
2018-08-24T06:37:33.049Z,23.18
2018-08-24T06:38:33.069Z,23.13
2018-08-24T06:39:33.092Z,22.69
2018-08-24T06:40:33.119Z,22.75
2018-08-24T06:41:33.140Z,22.68
2018-08-24T06:42:33.173Z,22.70
2018-08-24T06:43:33.192Z,22.54
2018-08-24T06:44:33.210Z,22.60
2018-08-24T06:45:33.229Z,22.59
2018-08-24T06:46:33.259Z,21.95
2018-08-24T06:47:33.287Z,21.95
2018-08-24T06:48:33.298Z,21.92
2018-08-24T06:49:33.316Z,21.61
2018-08-24T06:50:33.337Z,21.51
2018-08-24T06:51:33.362Z,21.43
2018-08-24T06:52:33.384Z,21.82
2018-08-24T06:53:33.564Z,21.54
2018-08-24T06:54:33.428Z,21.51
2018-08-24T06:55:33.448Z,21.45
2018-08-24T06:56:33.472Z,21.30
2018-08-24T06:57:33.493Z,21.30
2018-08-24T06:58:33.515Z,21.24
2018-08-24T06:59:33.579Z,20.87
2018-08-24T07:00:33.560Z,20.67
2018-08-24T07:01:33.581Z,20.69
2018-08-24T07:02:33.601Z,21.03
2018-08-24T07:03:33.629Z,21.12
2018-08-24T07:04:33.649Z,20.95
2018-08-24T07:05:33.666Z,20.97
2018-08-24T07:06:33.687Z,20.81
2018-08-24T07:07:33.711Z,21.00
2018-08-24T07:08:33.734Z,21.06
2018-08-24T07:09:33.767Z,21.06
2018-08-24T07:10:33.773Z,21.24
2018-08-24T07:11:33.793Z,21.21
2018-08-24T07:12:33.816Z,21.14
2018-08-24T07:13:33.838Z,21.03
2018-08-24T07:14:33.857Z,21.05
2018-08-24T07:15:33.888Z,21.18
2018-08-24T07:16:33.904Z,21.15
2018-08-24T07:17:33.923Z,21.36
2018-08-24T07:18:33.945Z,21.20
2018-08-24T07:19:33.966Z,21.42
2018-08-24T07:20:33.989Z,21.48
2018-08-24T07:21:34.036Z,21.75
2018-08-24T07:22:34.031Z,21.67
2018-08-24T07:23:34.053Z,21.89
2018-08-24T07:24:34.076Z,21.88
2018-08-24T07:25:34.096Z,21.62
2018-08-24T07:26:34.123Z,21.54
2018-08-24T07:27:34.144Z,21.88
2018-08-24T07:28:34.163Z,22.14
2018-08-24T07:29:34.180Z,22.29
2018-08-24T07:30:34.204Z,22.54
2018-08-24T07:31:34.227Z,22.72
2018-08-24T07:32:34.250Z,22.96
2018-08-24T07:33:34.270Z,22.93
2018-08-24T07:34:34.294Z,23.12
2018-08-24T07:35:34.314Z,23.27
2018-08-24T07:36:34.337Z,23.25
2018-08-24T07:37:34.359Z,23.36
2018-08-24T07:38:34.385Z,23.09
2018-08-24T07:39:34.402Z,23.41
2018-08-24T07:40:34.429Z,23.51
2018-08-24T07:41:34.569Z,23.68
2018-08-24T07:42:34.471Z,23.84
2018-08-24T07:43:34.495Z,23.83
2018-08-24T07:44:34.517Z,23.86
2018-08-24T07:45:34.539Z,23.50
2018-08-24T07:46:34.561Z,23.31
2018-08-24T07:47:34.582Z,23.34
2018-08-24T07:48:34.605Z,23.13
2018-08-24T07:49:34.627Z,23.10
2018-08-24T07:50:34.661Z,23.08
2018-08-24T07:51:34.673Z,22.85
2018-08-24T07:52:34.695Z,23.06
2018-08-24T07:53:34.719Z,23.09
2018-08-24T07:54:34.740Z,23.21
2018-08-24T07:55:34.762Z,23.20
2018-08-24T07:56:34.786Z,22.99
2018-08-24T07:57:34.809Z,23.08
2018-08-24T07:58:34.833Z,23.27
2018-08-24T07:59:34.853Z,22.93
2018-08-24T08:00:34.877Z,23.12
2018-08-24T08:01:34.898Z,22.98
2018-08-24T08:02:34.923Z,23.09
2018-08-24T08:03:34.940Z,23.12
2018-08-24T08:04:34.963Z,23.12
2018-08-24T08:05:34.986Z,22.78
2018-08-24T08:06:35.010Z,22.78
2018-08-24T08:07:35.032Z,23.12
2018-08-24T08:08:35.057Z,22.93
2018-08-24T08:09:35.076Z,23.23
2018-08-24T08:10:35.099Z,23.58
2018-08-24T08:11:35.121Z,23.61
2018-08-24T08:12:35.204Z,23.23
2018-08-24T08:13:35.165Z,22.90
2018-08-24T08:14:35.189Z,22.91
2018-08-24T08:15:35.210Z,22.54
2018-08-24T08:16:35.232Z,22.66
2018-08-24T08:17:35.255Z,22.60
2018-08-24T08:18:35.426Z,22.59
2018-08-24T08:19:35.305Z,22.13
2018-08-24T08:20:35.322Z,22.02
2018-08-24T08:21:35.345Z,21.99
2018-08-24T08:22:35.365Z,22.08
2018-08-24T08:23:35.407Z,22.04
2018-08-24T08:24:35.429Z,22.26
2018-08-24T08:25:35.431Z,22.00
2018-08-24T08:26:35.455Z,22.14
2018-08-24T08:27:35.477Z,21.98
2018-08-24T08:28:35.498Z,22.23
2018-08-24T08:29:35.521Z,22.44
2018-08-24T08:30:35.548Z,22.57
2018-08-24T08:31:35.566Z,22.51
2018-08-24T08:32:35.586Z,22.38
2018-08-24T08:33:35.606Z,22.17
2018-08-24T08:34:35.629Z,22.51
2018-08-24T08:35:35.651Z,22.53
2018-08-24T08:36:35.673Z,22.55
2018-08-24T08:37:35.695Z,22.51
2018-08-24T08:38:35.718Z,22.60
2018-08-24T08:39:35.740Z,22.53
2018-08-24T08:40:35.761Z,22.32
2018-08-24T08:41:35.783Z,22.38
2018-08-24T08:42:35.805Z,22.41
2018-08-24T08:43:35.826Z,22.75
2018-08-24T08:44:35.851Z,22.91
2018-08-24T08:45:35.873Z,23.36
2018-08-24T08:46:35.902Z,23.27
2018-08-24T08:47:35.915Z,23.18
2018-08-24T08:48:35.940Z,23.40
2018-08-24T08:49:35.960Z,23.41
2018-08-24T08:50:35.982Z,23.13
2018-08-24T08:51:36.005Z,23.13
2018-08-24T08:52:36.029Z,23.08
2018-08-24T08:53:36.158Z,22.72
2018-08-24T08:54:36.072Z,22.84
2018-08-24T08:55:36.094Z,22.76
2018-08-24T08:56:36.118Z,22.72
2018-08-24T08:57:36.137Z,22.73
2018-08-24T08:58:36.168Z,22.73
2018-08-24T08:59:36.183Z,22.78
2018-08-24T09:00:36.203Z,22.70
2018-08-24T09:01:36.223Z,22.80
2018-08-24T09:02:36.248Z,22.84
2018-08-24T09:03:36.269Z,22.78
2018-08-24T09:04:36.292Z,22.96
2018-08-24T09:05:36.314Z,22.96
2018-08-24T09:06:36.338Z,23.05
2018-08-24T09:07:36.411Z,23.15
2018-08-24T09:08:36.380Z,22.73
2018-08-24T09:09:36.404Z,23.40
2018-08-24T09:10:36.426Z,23.73
2018-08-24T09:11:36.447Z,23.50
2018-08-24T09:12:36.470Z,23.91
2018-08-24T09:13:36.489Z,24.17
2018-08-24T09:14:36.524Z,24.13
2018-08-24T09:15:36.536Z,24.06
2018-08-24T09:16:36.559Z,23.87
2018-08-24T09:17:36.580Z,23.76
2018-08-24T09:18:36.655Z,23.47
2018-08-24T09:19:36.625Z,23.15
2018-08-24T09:20:36.651Z,23.25
2018-08-24T09:21:36.676Z,23.63
2018-08-24T09:22:36.694Z,23.65
2018-08-24T09:23:36.723Z,23.48
2018-08-24T09:24:36.738Z,23.61
2018-08-24T09:25:36.785Z,23.55
2018-08-24T09:26:36.784Z,23.56
2018-08-24T09:27:36.805Z,23.31
2018-08-24T09:28:36.831Z,23.76
2018-08-24T09:29:36.852Z,24.06
2018-08-24T09:30:36.875Z,23.92
2018-08-24T09:31:36.894Z,24.10
2018-08-24T09:32:37.032Z,24.23
2018-08-24T09:33:36.985Z,24.33
2018-08-24T09:34:37.030Z,24.13
2018-08-24T09:35:36.987Z,24.40
2018-08-24T09:36:37.009Z,23.95
2018-08-24T09:37:37.099Z,24.16
2018-08-24T09:38:37.055Z,24.38
2018-08-24T09:39:37.076Z,24.43
2018-08-24T09:40:37.100Z,24.65
2018-08-24T09:41:37.123Z,24.63
2018-08-24T09:42:37.147Z,24.36
2018-08-24T09:43:37.170Z,24.21
2018-08-24T09:44:37.192Z,24.11
2018-08-24T09:45:37.214Z,24.03
2018-08-24T09:46:37.245Z,24.01
2018-08-24T09:47:37.259Z,24.01
2018-08-24T09:48:37.283Z,23.71
2018-08-24T09:49:37.308Z,24.02
2018-08-24T09:50:37.327Z,23.61
2018-08-24T09:51:37.351Z,23.61
2018-08-24T09:52:37.376Z,23.58
2018-08-24T09:53:37.395Z,23.59
2018-08-24T09:54:37.420Z,23.46
2018-08-24T09:55:37.446Z,23.55
2018-08-24T09:56:37.472Z,23.40
2018-08-24T09:57:37.485Z,23.34
2018-08-24T09:58:37.510Z,23.25
2018-08-24T09:59:37.531Z,23.00
2018-08-24T10:00:37.559Z,23.08
2018-08-24T10:01:37.577Z,23.34
2018-08-24T10:02:37.642Z,23.37
2018-08-24T10:03:37.624Z,23.43
2018-08-24T10:04:37.643Z,23.13
2018-08-24T10:05:37.677Z,23.18
2018-08-24T10:06:37.704Z,23.61
2018-08-24T10:07:37.711Z,23.51
2018-08-24T10:08:37.735Z,23.27
2018-08-24T10:09:37.752Z,22.90
2018-08-24T10:10:37.775Z,22.76
2018-08-24T10:11:37.796Z,22.94
2018-08-24T10:12:37.852Z,23.05
2018-08-24T10:13:37.847Z,22.94
2018-08-24T10:14:37.865Z,22.63
2018-08-24T10:15:37.886Z,22.38
2018-08-24T10:16:37.912Z,22.75
2018-08-24T10:17:37.938Z,22.73
2018-08-24T10:18:37.953Z,22.59
2018-08-24T10:19:37.973Z,23.10
2018-08-24T10:20:38.003Z,23.50
2018-08-24T10:21:38.019Z,23.81
2018-08-24T10:22:38.047Z,24.05
2018-08-24T10:23:38.065Z,24.01
2018-08-24T10:24:38.093Z,24.16
2018-08-24T10:25:38.107Z,24.38
2018-08-24T10:26:38.129Z,24.35
2018-08-24T10:27:38.154Z,24.29
2018-08-24T10:28:38.174Z,24.21
2018-08-24T10:29:38.264Z,24.03
2018-08-24T10:30:38.221Z,23.51
2018-08-24T10:31:38.245Z,23.25
2018-08-24T10:32:38.267Z,23.74
2018-08-24T10:33:38.348Z,23.21
2018-08-24T10:34:38.313Z,23.50
2018-08-24T10:35:38.333Z,23.55
2018-08-24T10:36:38.357Z,23.47
2018-08-24T10:37:38.383Z,23.76
2018-08-24T10:38:38.404Z,23.59
2018-08-24T10:39:38.611Z,23.86
2018-08-24T10:40:38.586Z,23.99
2018-08-24T10:41:38.605Z,23.98
2018-08-24T10:42:38.676Z,24.33
2018-08-24T10:43:38.655Z,24.01
2018-08-24T10:44:38.613Z,23.71
2018-08-24T10:45:38.642Z,23.81
2018-08-24T10:46:38.607Z,24.06
2018-08-24T10:47:38.629Z,23.83
2018-08-24T10:48:38.636Z,23.87
2018-08-24T10:49:38.664Z,23.62
2018-08-24T10:50:38.677Z,23.84
2018-08-24T10:51:38.705Z,24.10
2018-08-24T10:52:38.736Z,24.02
2018-08-24T10:53:38.753Z,24.08
2018-08-24T10:54:38.770Z,24.29
2018-08-24T10:55:38.862Z,24.63
2018-08-24T10:56:38.827Z,24.11
2018-08-24T10:57:38.838Z,24.30
2018-08-24T10:58:38.861Z,24.08
2018-08-24T10:59:38.883Z,23.98
2018-08-24T11:00:38.907Z,23.92
2018-08-24T11:01:38.929Z,23.86
2018-08-24T11:02:38.954Z,24.10
2018-08-24T11:03:39.040Z,24.18
2018-08-24T11:04:38.998Z,23.93
2018-08-24T11:05:39.044Z,24.08
2018-08-24T11:06:39.044Z,23.87
2018-08-24T11:07:39.155Z,23.84
2018-08-24T11:08:39.090Z,23.91
2018-08-24T11:09:39.116Z,24.20
2018-08-24T11:10:39.134Z,24.48
2018-08-24T11:11:39.159Z,24.48
2018-08-24T11:12:39.183Z,24.23
2018-08-24T11:13:39.203Z,24.32
2018-08-24T11:14:39.226Z,24.57
2018-08-24T11:15:39.254Z,24.92
2018-08-24T11:16:39.307Z,25.28
2018-08-24T11:17:39.297Z,25.17
2018-08-24T11:18:39.321Z,25.41
2018-08-24T11:19:39.341Z,25.54
2018-08-24T11:20:39.365Z,25.69
2018-08-24T11:21:39.392Z,25.40
2018-08-24T11:22:39.411Z,25.78
2018-08-24T11:23:39.436Z,25.60
2018-08-24T11:24:39.463Z,25.59
2018-08-24T11:25:39.483Z,25.87
2018-08-24T11:26:39.557Z,25.78
2018-08-24T11:27:39.531Z,25.40
2018-08-24T11:28:39.559Z,25.31
2018-08-24T11:29:39.576Z,25.38
2018-08-24T11:30:39.599Z,24.91
2018-08-24T11:31:39.622Z,24.88
2018-08-24T11:32:39.647Z,25.14
2018-08-24T11:33:39.670Z,24.39
2018-08-24T11:34:39.701Z,24.16
2018-08-24T11:35:39.721Z,24.57
2018-08-24T11:36:39.747Z,24.74
2018-08-24T11:37:39.763Z,24.85
2018-08-24T11:38:39.788Z,24.91
2018-08-24T11:39:39.812Z,24.57
2018-08-24T11:40:39.837Z,24.92
2018-08-24T11:41:39.863Z,24.76
2018-08-24T11:42:39.882Z,24.73
2018-08-24T11:43:39.903Z,24.55
2018-08-24T11:44:39.965Z,23.88
2018-08-24T11:45:39.949Z,23.86
2018-08-24T11:46:39.977Z,24.33
2018-08-24T11:47:40.001Z,24.61
2018-08-24T11:48:40.025Z,24.95
2018-08-24T11:49:40.074Z,24.28
2018-08-24T11:50:40.066Z,24.06
2018-08-24T11:51:40.092Z,24.02
2018-08-24T11:52:40.114Z,24.08
2018-08-24T11:53:40.137Z,24.14
2018-08-24T11:54:40.157Z,24.06
2018-08-24T11:55:40.183Z,24.17
2018-08-24T11:56:40.209Z,24.39
2018-08-24T11:57:40.228Z,24.61
2018-08-24T11:58:40.255Z,24.68
2018-08-24T11:59:40.316Z,24.50
2018-08-24T12:00:40.301Z,24.68
2018-08-24T12:01:40.325Z,24.32
2018-08-24T12:02:40.342Z,24.66
2018-08-24T12:03:40.371Z,24.65
2018-08-24T12:04:40.389Z,24.08
2018-08-24T12:05:40.412Z,24.47
2018-08-24T12:06:40.433Z,24.57
2018-08-24T12:07:40.458Z,24.58
2018-08-24T12:08:40.482Z,24.36
2018-08-24T12:09:40.505Z,24.13
2018-08-24T12:10:40.529Z,24.03
2018-08-24T12:11:40.548Z,24.08
2018-08-24T12:12:40.600Z,24.11
2018-08-24T12:13:40.617Z,24.47
2018-08-24T12:14:40.619Z,24.33
2018-08-24T12:15:40.642Z,24.32
2018-08-24T12:16:40.669Z,23.86
2018-08-24T12:17:40.688Z,23.77
2018-08-24T12:18:40.846Z,23.86
2018-08-24T12:19:40.740Z,24.01
2018-08-24T12:20:40.758Z,23.99
2018-08-24T12:21:40.856Z,24.11
2018-08-24T12:22:40.804Z,24.18
2018-08-24T12:23:40.828Z,24.29
2018-08-24T12:24:40.854Z,24.40
2018-08-24T12:25:40.874Z,23.93
2018-08-24T12:26:40.894Z,23.93
2018-08-24T12:27:40.919Z,24.13
2018-08-24T12:28:40.942Z,24.10
2018-08-24T12:29:40.961Z,23.95
2018-08-24T12:30:40.986Z,23.88
2018-08-24T12:31:41.010Z,23.68
2018-08-24T12:32:41.034Z,23.83
2018-08-24T12:33:41.054Z,23.98
2018-08-24T12:34:41.082Z,24.18
2018-08-24T12:35:41.101Z,24.02
2018-08-24T12:36:41.121Z,23.74
2018-08-24T12:37:41.143Z,24.35
2018-08-24T12:38:41.168Z,23.86
2018-08-24T12:39:41.191Z,23.65
2018-08-24T12:40:41.211Z,23.76
2018-08-24T12:41:41.236Z,24.05
2018-08-24T12:42:41.257Z,23.78
2018-08-24T12:43:41.412Z,23.36
2018-08-24T12:44:41.303Z,23.51
2018-08-24T12:45:41.327Z,23.73
2018-08-24T12:46:41.356Z,23.59
2018-08-24T12:47:41.375Z,23.32
2018-08-24T12:48:41.395Z,23.55
2018-08-24T12:49:41.415Z,23.55
2018-08-24T12:50:41.443Z,23.68
2018-08-24T12:51:41.461Z,24.08
2018-08-24T12:52:41.483Z,24.21